Time;durP1;ratioP1;P1;durP2;ratioP2;P2;SDS_P1;SDS_P2;PMS_P1;PMS_P2;Temp;Humidity;BMP_temperature;BMP_pressure;BME280_temperature;BME280_humidity;BME280_pressure;Samples;Min_cycle;Max_cycle;Signal;HPM_P1;HPM_P2
2023/02/24 00:00:51;;;;;;;23.25;10.48;;;6.50;99.90;;;;;;5048149;28;20530;-75
2023/02/24 00:03:17;;;;;;;27.60;13.80;;;6.50;99.90;;;;;;5048464;28;20116;-74
2023/02/24 00:05:47;;;;;;;;;;;6.60;99.90;;;;;;5048717;28;20096;-74
2023/02/24 00:08:12;;;;;;;68.78;33.13;;;6.60;99.90;;;;;;5048326;28;20066;-75
2023/02/24 00:10:38;;;;;;;;;;;6.50;99.90;;;;;;5048589;28;20506;-75
2023/02/24 00:13:03;;;;;;;61.60;31.15;;;6.50;99.90;;;;;;5046760;28;19928;-75
2023/02/24 00:15:29;;;;;;;;;;;6.50;99.90;;;;;;5048365;28;20417;-73
2023/02/24 00:17:55;;;;;;;54.92;22.50;;;6.50;99.90;;;;;;5030098;28;19908;-75
2023/02/24 00:20:20;;;;;;;;;;;6.50;99.90;;;;;;5048776;28;20029;-74
2023/02/24 00:22:48;;;;;;;43.05;21.58;;;6.50;99.90;;;;;;5030048;28;19917;-72
2023/02/24 00:25:14;;;;;;;37.33;18.58;;;6.40;99.90;;;;;;5048206;28;20476;-72
2023/02/24 00:27:41;;;;;;;;;;;6.40;99.90;;;;;;5030571;28;20413;-74
2023/02/24 00:30:09;;;;;;;37.83;14.73;;;6.50;99.90;;;;;;5047976;28;19912;-73
2023/02/24 00:32:35;;;;;;;23.60;10.65;;;6.50;99.90;;;;;;5047817;28;20421;-74
2023/02/24 00:35:01;;;;;;;;;;;6.50;99.90;;;;;;5048440;28;20017;-74
2023/02/24 00:37:28;;;;;;;31.83;11.07;;;6.60;99.90;;;;;;5046582;28;20489;-74
2023/02/24 00:39:57;;;;;;;32.35;12.20;;;6.60;99.90;;;;;;5030111;28;20041;-73
2023/02/24 00:42:23;;;;;;;33.55;13.15;;;6.60;99.90;;;;;;5047892;28;20060;-72
2023/02/24 00:44:52;;;;;;;35.38;13.30;;;6.70;99.90;;;;;;5047561;28;20033;-74
2023/02/24 00:47:18;;;;;;;37.00;14.73;;;6.70;99.90;;;;;;5030343;28;20033;-74
2023/02/24 00:49:44;;;;;;;;;;;6.80;99.90;;;;;;5052348;28;20108;-73
2023/02/24 00:52:16;;;;;;;25.75;9.55;;;6.80;99.90;;;;;;5033962;28;20400;-74
2023/02/24 00:54:42;;;;;;;18.40;8.60;;;6.90;99.90;;;;;;5051635;28;20568;-74
2023/02/24 00:57:08;;;;;;;15.70;7.90;;;6.90;99.90;;;;;;5051805;28;20040;-73
2023/02/24 00:59:34;;;;;;;;;;;6.80;99.90;;;;;;5052209;28;20029;-75
2023/02/24 01:02:02;;;;;;;33.30;17.20;;;6.80;99.90;;;;;;5033829;28;20329;-74
2023/02/24 01:04:29;;;;;;;26.42;11.25;;;6.80;99.90;;;;;;5051640;28;20037;-74
2023/02/24 01:07:09;;;;;;;21.15;9.00;;;6.90;99.90;;;;;;5050215;28;20028;-75
2023/02/24 01:09:37;;;;;;;18.98;8.23;;;6.90;99.90;;;;;;5051441;28;20025;-74
2023/02/24 01:12:37;;;;;;;17.65;8.65;;;6.90;99.90;;;;;;5051467;28;20028;-74
2023/02/24 01:15:03;;;;;;;24.58;11.73;;;6.80;99.90;;;;;;5050774;28;20029;-74
2023/02/24 01:17:29;;;;;;;23.23;9.93;;;6.90;99.90;;;;;;5051374;28;20238;-74
2023/02/24 01:19:59;;;;;;;;;;;6.90;99.90;;;;;;5051599;28;20523;-74
2023/02/24 01:22:25;;;;;;;27.50;11.00;;;6.80;99.90;;;;;;5051067;28;19924;-73
2023/02/24 01:24:51;;;;;;;27.70;11.80;;;6.90;99.90;;;;;;5051198;28;20022;-74
2023/02/24 01:27:17;;;;;;;;;;;6.90;99.90;;;;;;5051642;28;20039;-73
2023/02/24 01:29:45;;;;;;;20.70;9.52;;;6.80;99.90;;;;;;5051048;28;19913;-73
2023/02/24 01:32:19;;;;;;;19.75;8.18;;;6.80;99.90;;;;;;5033155;28;20485;-73
2023/02/24 01:34:45;;;;;;;16.20;7.15;;;6.80;99.90;;;;;;5050986;28;20028;-73
2023/02/24 01:37:15;;;;;;;19.90;8.35;;;6.80;99.90;;;;;;5050887;28;20513;-73
2023/02/24 01:39:41;;;;;;;14.98;7.47;;;6.80;99.90;;;;;;5050876;28;20056;-73
2023/02/24 01:42:15;;;;;;;18.88;7.40;;;6.80;99.90;;;;;;5050623;28;20512;-74
2023/02/24 01:44:42;;;;;;;17.25;7.53;;;6.80;99.90;;;;;;5032655;28;20024;-73
2023/02/24 01:47:08;;;;;;;14.88;7.10;;;6.80;99.90;;;;;;5050765;28;20037;-74
2023/02/24 01:49:42;;;;;;;19.15;7.03;;;6.80;99.90;;;;;;5033097;28;20071;-72
2023/02/24 01:52:19;;;;;;;16.70;6.80;;;6.80;99.90;;;;;;5050658;28;20059;-74
2023/02/24 01:55:04;;;;;;;;;;;6.70;99.90;;;;;;5032709;28;20056;-74
2023/02/24 01:57:34;;;;;;;21.08;7.38;;;6.80;99.90;;;;;;5050644;28;19932;-73
2023/02/24 02:00:11;;;;;;;14.32;7.38;;;6.80;99.90;;;;;;5049179;28;20025;-74
2023/02/24 02:02:44;;;;;;;16.73;7.70;;;6.80;99.90;;;;;;5032396;28;20375;-73
2023/02/24 02:05:10;;;;;;;18.25;7.90;;;6.80;99.90;;;;;;5050384;28;20068;-74
2023/02/24 02:07:38;;;;;;;21.70;8.38;;;6.80;99.90;;;;;;5048959;28;20029;-73
2023/02/24 02:10:06;;;;;;;22.33;8.65;;;6.70;99.90;;;;;;5050336;28;20106;-74
2023/02/24 02:12:42;;;;;;;24.60;7.35;;;6.70;99.90;;;;;;5050012;28;20515;-74
2023/02/24 02:15:15;;;;;;;21.83;7.75;;;6.70;99.90;;;;;;5050358;28;20582;-74
2023/02/24 02:17:47;;;;;;;16.73;6.55;;;6.70;99.90;;;;;;5032309;28;20048;-74
2023/02/24 02:20:27;;;;;;;24.30;7.85;;;6.80;99.90;;;;;;5050400;28;20029;-71
2023/02/24 02:23:11;;;;;;;17.08;7.75;;;6.80;99.90;;;;;;5049849;28;20190;-72
2023/02/24 02:25:58;;;;;;;21.55;7.68;;;6.80;99.90;;;;;;5050035;28;20504;-73
2023/02/24 02:28:35;;;;;;;23.23;9.25;;;6.90;99.90;;;;;;5031696;28;20512;-72
2023/02/24 02:31:39;;;;;;;23.35;8.07;;;6.80;99.90;;;;;;5050007;28;20078;-76
2023/02/24 02:34:26;;;;;;;19.60;7.85;;;6.90;99.90;;;;;;5048586;28;20021;-75
2023/02/24 02:37:23;;;;;;;25.23;7.88;;;7.00;99.90;;;;;;5049647;28;20041;-73
2023/02/24 02:39:58;;;;;;;18.63;7.70;;;7.10;99.90;;;;;;5049685;28;20029;-75
2023/02/24 02:42:39;;;;;;;18.42;8.13;;;7.00;99.90;;;;;;5031762;28;20048;-74
2023/02/24 02:45:14;;;;;;;19.45;7.30;;;7.10;99.90;;;;;;5049689;28;20647;-75
2023/02/24 02:48:05;;;;;;;15.15;6.63;;;7.10;99.90;;;;;;5031712;28;20025;-75
2023/02/24 02:50:42;;;;;;;62.97;31.02;;;7.20;99.90;;;;;;5049437;28;20032;-75
2023/02/24 02:53:36;;;;;;;17.17;8.00;;;7.20;99.90;;;;;;5031609;28;20029;-75
2023/02/24 02:56:30;;;;;;;18.02;7.05;;;7.20;99.90;;;;;;5025950;28;20035;-75
2023/02/24 02:58:59;;;;;;;14.82;6.25;;;7.20;99.90;;;;;;5049411;28;20039;-74
2023/02/24 03:01:30;;;;;;;20.85;6.78;;;7.20;99.90;;;;;;5049253;28;20521;-76
2023/02/24 03:04:00;;;;;;;15.50;6.47;;;7.20;99.90;;;;;;5049416;28;20174;-75
2023/02/24 03:06:38;;;;;;;16.95;6.80;;;7.10;99.90;;;;;;5049204;28;20104;-74
2023/02/24 03:09:14;;;;;;;22.95;6.78;;;7.10;99.90;;;;;;5049337;28;20534;-73
2023/02/24 03:11:41;;;;;;;;;;;7.00;99.90;;;;;;5049221;28;20058;-75
2023/02/24 03:14:11;;;;;;;22.45;8.07;;;7.00;99.90;;;;;;5030954;28;19909;-74
2023/02/24 03:16:40;;;;;;;21.75;7.32;;;7.00;99.90;;;;;;5048744;28;20037;-74
2023/02/24 03:19:09;;;;;;;17.75;8.10;;;7.00;99.90;;;;;;5049151;28;20031;-74
2023/02/24 03:21:44;;;;;;;18.27;7.60;;;7.00;99.90;;;;;;5030936;28;20091;-74
2023/02/24 03:24:10;;;;;;;19.98;8.00;;;6.90;99.90;;;;;;5048983;28;20108;-74
2023/02/24 03:26:42;;;;;;;25.10;7.22;;;6.90;99.90;;;;;;5047496;28;20029;-74
2023/02/24 03:29:23;;;;;;;16.25;7.35;;;6.90;99.90;;;;;;5030851;28;20032;-73
2023/02/24 03:31:58;;;;;;;17.95;7.82;;;6.90;99.90;;;;;;5048912;28;20080;-75
2023/02/24 03:34:48;;;;;;;19.77;8.30;;;6.90;99.90;;;;;;5030860;28;20144;-74
2023/02/24 03:37:14;;;;;;;16.67;7.28;;;6.80;99.90;;;;;;5048660;28;20084;-73
2023/02/24 03:39:40;;;;;;;;;;;6.80;99.90;;;;;;5049003;28;20051;-74
2023/02/24 03:42:15;;;;;;;21.42;8.07;;;6.80;99.90;;;;;;5048723;28;19931;-74
2023/02/24 03:44:41;;;;;;;17.90;9.18;;;6.90;99.90;;;;;;5048555;28;20052;-75
2023/02/24 03:47:08;;;;;;;;;;;6.80;99.90;;;;;;5049105;28;20061;-74
2023/02/24 03:49:36;;;;;;;20.92;7.70;;;6.80;99.90;;;;;;5047382;28;20577;-74
2023/02/24 03:52:20;;;;;;;15.70;8.02;;;6.70;99.90;;;;;;5030647;28;20032;-74
2023/02/24 03:55:05;;;;;;;24.52;8.32;;;6.80;99.90;;;;;;5030801;28;20096;-73
2023/02/24 03:57:53;;;;;;;23.90;9.60;;;6.70;99.90;;;;;;5048458;28;20024;-73
2023/02/24 04:00:35;;;;;;;18.42;9.63;;;6.70;99.90;;;;;;5048450;28;20037;-74
2023/02/24 04:03:24;;;;;;;22.38;10.60;;;6.70;99.90;;;;;;5030272;28;20644;-73
2023/02/24 04:06:29;;;;;;;19.70;9.90;;;6.60;99.90;;;;;;5048357;28;20036;-73
2023/02/24 04:09:32;;;;;;;18.98;9.40;;;6.60;99.90;;;;;;5039800;28;20107;-74
2023/02/24 04:12:08;;;;;;;21.95;10.32;;;6.60;99.90;;;;;;5030550;28;20037;-75
2023/02/24 04:15:03;;;;;;;22.77;9.98;;;6.60;99.90;;;;;;5048318;28;20032;-74
2023/02/24 04:17:46;;;;;;;27.98;13.85;;;6.60;99.90;;;;;;5040079;28;20044;-74
2023/02/24 04:20:15;;;;;;;21.02;9.13;;;6.60;99.90;;;;;;5048267;28;20052;-73
2023/02/24 04:22:44;;;;;;;19.60;9.82;;;6.60;99.90;;;;;;5048778;28;20045;-74
2023/02/24 04:25:12;;;;;;;24.50;9.70;;;6.60;99.90;;;;;;5052297;28;20048;-74
2023/02/24 04:27:43;;;;;;;23.38;10.15;;;6.60;99.90;;;;;;5050896;28;20101;-73
2023/02/24 04:30:11;;;;;;;17.02;9.52;;;6.50;99.90;;;;;;5052328;28;20409;-74
2023/02/24 04:32:37;;;;;;;20.02;10.25;;;6.40;99.90;;;;;;5034128;28;20449;-74
2023/02/24 04:35:11;;;;;;;24.35;10.80;;;6.40;99.90;;;;;;5052074;28;20033;-74
2023/02/24 04:37:39;;;;;;;19.88;9.85;;;6.30;99.90;;;;;;5052240;28;20041;-73
2023/02/24 04:40:11;;;;;;;18.52;9.73;;;6.30;99.90;;;;;;5034112;28;20037;-74
2023/02/24 04:42:45;;;;;;;20.83;10.27;;;6.20;99.90;;;;;;5051904;28;20124;-74
2023/02/24 04:45:18;;;;;;;33.38;12.48;;;6.30;99.90;;;;;;5052058;28;20021;-74
2023/02/24 04:47:55;;;;;;;29.17;11.05;;;6.30;99.90;;;;;;5051985;28;20033;-74
2023/02/24 04:50:23;;;;;;;21.63;11.63;;;6.30;99.90;;;;;;5033897;28;20511;-74
2023/02/24 04:52:54;;;;;;;28.50;11.77;;;6.30;99.90;;;;;;5051700;28;20037;-74
2023/02/24 04:55:22;;;;;;;25.00;12.05;;;6.30;99.90;;;;;;5051919;28;20021;-74
2023/02/24 04:57:51;;;;;;;28.23;13.02;;;6.30;99.90;;;;;;5033821;28;20424;-72
2023/02/24 05:00:21;;;;;;;19.45;11.13;;;6.30;99.90;;;;;;5033725;28;20031;-74
2023/02/24 05:02:50;;;;;;;26.95;12.07;;;6.30;99.90;;;;;;5051328;28;20033;-73
2023/02/24 05:05:17;;;;;;;25.27;13.05;;;6.30;99.90;;;;;;5033669;28;20513;-74
2023/02/24 05:07:46;;;;;;;27.75;12.95;;;6.40;99.90;;;;;;5051568;28;20057;-73
2023/02/24 05:10:14;;;;;;;27.65;13.98;;;6.50;99.90;;;;;;5033373;28;20025;-72
2023/02/24 05:12:40;;;;;;;25.05;13.68;;;6.40;99.90;;;;;;5050873;28;20485;-73
2023/02/24 05:15:07;;;;;;;28.77;14.43;;;6.40;99.90;;;;;;5033458;28;20496;-73
2023/02/24 05:17:34;;;;;;;26.33;14.30;;;6.40;99.90;;;;;;5051490;28;20036;-73
2023/02/24 05:22:50;;;;;;;26.95;13.25;;;6.40;99.90;;;;;;5050930;28;20520;-74
2023/02/24 05:25:17;;;;;;;27.42;14.57;;;6.40;99.90;;;;;;5051282;28;20025;-72
2023/02/24 05:27:43;;;;;;;30.55;14.30;;;6.40;99.90;;;;;;5051031;28;20378;-73
2023/02/24 05:30:10;;;;;;;;;;;6.40;99.90;;;;;;5033688;28;20661;-73
2023/02/24 05:32:36;;;;;;;30.80;14.43;;;6.40;99.90;;;;;;5032573;28;19963;-72
2023/02/24 05:35:03;;;;;;;28.80;14.98;;;6.30;99.90;;;;;;5050769;28;20029;-74
2023/02/24 05:37:29;;;;;;;31.92;15.88;;;6.30;99.90;;;;;;5032560;28;20064;-72
2023/02/24 05:39:55;;;;;;;;;;;6.30;99.90;;;;;;5051397;28;20029;-72
2023/02/24 05:42:20;;;;;;;29.75;14.55;;;6.30;99.90;;;;;;5032872;28;19965;-73
2023/02/24 05:44:46;;;;;;;;;;;6.30;99.90;;;;;;5051073;28;20044;-72
2023/02/24 05:47:12;;;;;;;33.92;16.67;;;6.30;99.90;;;;;;5033105;28;19909;-73
2023/02/24 05:49:38;;;;;;;;;;;6.30;99.90;;;;;;5051036;28;20523;-71
2023/02/24 05:52:08;;;;;;;39.22;16.50;;;6.30;99.90;;;;;;5049354;28;19908;-73
2023/02/24 05:54:39;;;;;;;28.38;15.23;;;6.30;99.90;;;;;;5050424;28;20516;-74
2023/02/24 05:57:11;;;;;;;29.88;16.52;;;6.40;99.90;;;;;;5032627;28;20029;-74
2023/02/24 05:59:39;;;;;;;27.05;16.17;;;6.40;99.90;;;;;;5050565;28;20514;-74
2023/02/24 06:02:10;;;;;;;29.35;16.42;;;6.40;99.90;;;;;;5050488;28;20067;-74
2023/02/24 06:04:39;;;;;;;29.83;16.00;;;6.40;99.90;;;;;;5050212;28;20104;-74
2023/02/24 06:07:21;;;;;;;24.10;14.88;;;6.30;99.90;;;;;;5050422;28;20029;-73
2023/02/24 06:09:52;;;;;;;24.60;15.00;;;6.40;99.90;;;;;;5050644;28;20053;-73
2023/02/24 06:12:19;;;;;;;24.83;13.82;;;6.40;99.90;;;;;;5032668;28;20467;-72
2023/02/24 06:14:46;;;;;;;40.80;18.88;;;6.40;99.90;;;;;;5050186;28;20017;-72
2023/02/24 06:17:15;;;;;;;30.67;16.77;;;6.40;99.90;;;;;;5050256;28;20501;-72
2023/02/24 06:19:42;;;;;;;32.80;16.75;;;6.50;99.90;;;;;;5050350;28;20448;-72
2023/02/24 06:22:12;;;;;;;24.08;15.27;;;6.40;99.90;;;;;;5032002;28;20106;-73
2023/02/24 06:24:43;;;;;;;27.70;16.50;;;6.50;99.90;;;;;;5049466;28;20039;-75
2023/02/24 06:27:17;;;;;;;29.90;17.08;;;6.50;99.90;;;;;;5049946;28;20059;-71
2023/02/24 06:29:48;;;;;;;28.17;15.65;;;6.50;99.90;;;;;;5049653;28;20024;-72
2023/02/24 06:32:14;;;;;;;26.02;16.25;;;6.50;99.90;;;;;;5049735;28;20405;-75
2023/02/24 06:34:40;;;;;;;28.48;17.08;;;6.50;99.90;;;;;;5049745;28;20052;-74
2023/02/24 06:37:06;;;;;;;;;;;6.50;99.90;;;;;;5032065;28;20084;-73
2023/02/24 06:39:33;;;;;;;27.80;17.52;;;6.50;99.90;;;;;;5031784;28;19909;-74
2023/02/24 06:42:03;;;;;;;30.05;19.10;;;6.50;99.90;;;;;;5031776;28;20049;-75
2023/02/24 06:44:35;;;;;;;30.75;18.35;;;6.60;99.90;;;;;;5049541;28;20033;-75
2023/02/24 06:47:01;;;;;;;27.17;18.85;;;6.60;99.90;;;;;;5048763;28;20053;-76
2023/02/24 06:49:27;;;;;;;32.45;20.60;;;6.60;99.90;;;;;;5048975;28;20033;-75
2023/02/24 06:51:54;;;;;;;33.85;21.00;;;6.60;99.90;;;;;;5031336;28;20033;-74
2023/02/24 06:54:27;;;;;;;42.58;23.45;;;6.60;99.90;;;;;;5031509;28;20485;-76
2023/02/24 06:56:53;;;;;;;42.05;21.67;;;6.60;99.90;;;;;;5049432;28;20637;-74
2023/02/24 06:59:27;;;;;;;45.10;23.38;;;6.60;99.90;;;;;;5031678;28;20381;-76
2023/02/24 07:01:57;;;;;;;41.75;22.70;;;6.60;99.90;;;;;;5031388;28;20041;-75
2023/02/24 07:04:26;;;;;;;36.35;21.70;;;6.60;99.90;;;;;;5031496;28;20218;-74
2023/02/24 07:06:55;;;;;;;42.05;21.30;;;6.60;99.90;;;;;;5031186;28;20029;-71
2023/02/24 07:09:23;;;;;;;33.97;19.90;;;6.60;99.90;;;;;;5049245;28;20029;-74
2023/02/24 07:11:52;;;;;;;35.50;21.80;;;6.60;99.90;;;;;;5031189;28;20060;-75
2023/02/24 07:14:20;;;;;;;40.53;21.70;;;6.50;99.90;;;;;;5031136;28;20028;-74
2023/02/24 07:16:46;;;;;;;38.30;23.65;;;6.50;99.90;;;;;;5049019;28;20028;-75
2023/02/24 07:19:14;;;;;;;42.53;24.70;;;6.60;99.90;;;;;;5031236;28;20025;-75
2023/02/24 07:21:45;;;;;;;44.40;18.85;;;6.60;99.90;;;;;;5048937;28;20048;-75
2023/02/24 07:24:13;;;;;;;43.17;20.38;;;6.70;99.90;;;;;;5030866;28;20025;-73
2023/02/24 07:26:40;;;;;;;42.80;24.75;;;6.80;99.90;;;;;;5030942;28;20036;-75
2023/02/24 07:29:08;;;;;;;78.93;42.25;;;6.80;99.90;;;;;;5030596;28;20033;-73
2023/02/24 07:31:36;;;;;;;57.95;34.53;;;6.80;99.90;;;;;;5030798;28;20033;-74
2023/02/24 07:34:03;;;;;;;64.57;38.20;;;6.80;99.90;;;;;;5048709;28;20068;-74
2023/02/24 07:36:30;;;;;;;36.60;21.80;;;6.90;99.90;;;;;;5047959;28;20044;-73
2023/02/24 07:39:00;;;;;;;30.85;18.90;;;7.00;99.90;;;;;;5048315;28;20441;-74
2023/02/24 07:41:27;;;;;;;33.50;19.92;;;7.00;99.90;;;;;;5047226;28;20493;-73
2023/02/24 07:43:54;;;;;;;30.50;18.17;;;7.10;99.90;;;;;;5047482;28;20025;-75
2023/02/24 07:46:23;;;;;;;30.85;18.73;;;7.20;99.90;;;;;;5030865;28;20064;-74
2023/02/24 07:48:51;;;;;;;38.70;20.23;;;7.20;99.90;;;;;;5047043;28;20063;-74
2023/02/24 07:51:18;;;;;;;67.00;33.75;;;7.10;99.90;;;;;;5048514;28;20025;-75
2023/02/24 07:53:48;;;;;;;40.65;23.48;;;7.10;99.90;;;;;;5030380;28;20032;-75
2023/02/24 07:56:16;;;;;;;34.67;22.55;;;7.30;99.90;;;;;;5048478;28;20466;-75
2023/02/24 07:58:50;;;;;;;27.75;18.70;;;7.40;99.90;;;;;;5046755;28;20056;-75
2023/02/24 08:01:21;;;;;;;30.77;17.40;;;7.50;99.90;;;;;;5048267;28;20067;-75
2023/02/24 08:04:00;;;;;;;38.75;18.83;;;7.70;99.90;;;;;;5047955;28;20032;-75
2023/02/24 08:06:36;;;;;;;39.25;18.30;;;7.90;99.90;;;;;;5030135;28;20056;-75
2023/02/24 08:09:17;;;;;;;30.75;19.25;;;8.10;99.90;;;;;;5030302;28;20506;-75
2023/02/24 08:11:54;;;;;;;31.35;18.23;;;8.20;99.90;;;;;;5048165;28;20044;-75
2023/02/24 08:14:25;;;;;;;31.27;18.23;;;8.30;99.90;;;;;;5030283;28;20116;-75
2023/02/24 08:16:58;;;;;;;32.33;18.73;;;8.40;99.90;;;;;;5048095;28;20029;-75
2023/02/24 08:19:31;;;;;;;34.78;17.73;;;8.40;99.90;;;;;;5030077;28;20802;-74
2023/02/24 08:22:18;;;;;;;31.25;16.15;;;8.70;99.90;;;;;;5048226;28;20144;-75
2023/02/24 08:24:55;;;;;;;33.97;18.67;;;9.30;99.90;;;;;;5048040;28;20723;-76
2023/02/24 08:27:29;;;;;;;25.73;16.58;;;9.80;99.90;;;;;;5048369;28;20114;-75
2023/02/24 08:29:58;;;;;;;29.92;16.63;;;10.10;99.90;;;;;;5048005;28;20036;-75
2023/02/24 08:32:34;;;;;;;27.10;16.80;;;10.30;99.90;;;;;;5048071;28;20120;-75
2023/02/24 08:35:03;;;;;;;28.15;16.52;;;10.60;99.90;;;;;;5030097;28;20033;-74
2023/02/24 08:37:38;;;;;;;28.08;18.02;;;10.50;99.90;;;;;;5029859;28;20429;-74
2023/02/24 08:40:33;;;;;;;26.92;16.05;;;10.30;99.90;;;;;;5048479;28;20400;-74
2023/02/24 08:43:08;;;;;;;27.05;18.20;;;10.10;99.90;;;;;;5047669;28;20414;-75
2023/02/24 08:45:37;;;;;;;29.33;17.27;;;10.30;99.90;;;;;;5047929;28;20021;-76
2023/02/24 08:48:17;;;;;;;30.80;18.50;;;10.30;99.90;;;;;;5047643;28;20508;-74
2023/02/24 08:50:45;;;;;;;27.33;17.27;;;10.20;99.90;;;;;;5047289;28;20029;-76
2023/02/24 08:53:17;;;;;;;33.53;19.13;;;10.00;99.90;;;;;;5047910;28;20032;-75
2023/02/24 08:55:50;;;;;;;30.92;20.55;;;10.00;99.90;;;;;;5047612;28;20140;-76
2023/02/24 08:58:25;;;;;;;32.17;20.02;;;10.00;99.90;;;;;;5042160;28;20032;-74
2023/02/24 09:00:53;;;;;;;26.58;17.58;;;9.70;99.90;;;;;;5047767;28;20029;-74
2023/02/24 09:03:28;;;;;;;35.30;19.75;;;9.60;99.90;;;;;;5047656;28;20421;-74
2023/02/24 09:06:07;;;;;;;36.40;23.25;;;9.60;99.90;;;;;;5030086;28;20171;-74
2023/02/24 09:08:37;;;;;;;37.78;24.35;;;9.50;99.90;;;;;;5048014;28;20033;-76
2023/02/24 09:11:12;;;;;;;35.70;19.13;;;9.40;99.90;;;;;;5051345;28;20029;-75
2023/02/24 09:14:03;;;;;;;29.70;18.08;;;9.30;99.90;;;;;;5033478;28;20029;-74
2023/02/24 09:16:28;;;;;;;28.30;18.92;;;9.20;99.90;;;;;;5050583;28;20041;-74
2023/02/24 09:22:13;;;;;;;28.30;18.23;;;9.40;99.90;;;;;;5051329;28;20124;-75
2023/02/24 09:24:31;;;;;;;26.05;17.23;;;9.50;99.90;;;;;;5050968;28;20040;-75
2023/02/24 09:27:03;;;;;;;36.03;18.60;;;9.60;99.90;;;;;;5051230;28;20021;-75
2023/02/24 09:29:34;;;;;;;35.55;19.80;;;9.70;99.90;;;;;;5032927;28;20037;-75
2023/02/24 09:32:04;;;;;;;32.05;19.00;;;9.90;99.90;;;;;;5033115;28;20560;-75
2023/02/24 09:34:45;;;;;;;28.73;17.90;;;10.30;99.90;;;;;;5050977;28;20075;-74
2023/02/24 09:37:23;;;;;;;29.67;18.20;;;10.70;99.90;;;;;;5050780;28;20122;-74
2023/02/24 09:44:55;;;;;;;28.33;19.10;;;11.20;99.90;;;;;;5050653;28;20405;-75
2023/02/24 09:47:38;;;;;;;26.63;18.40;;;11.10;99.90;;;;;;5033012;28;20040;-75
2023/02/24 09:50:18;;;;;;;42.92;19.48;;;11.10;99.90;;;;;;5050741;28;20110;-75
2023/02/24 09:52:49;;;;;;;25.10;17.27;;;11.00;99.90;;;;;;5050492;28;20036;-76
2023/02/24 09:55:34;;;;;;;25.80;16.00;;;10.90;99.90;;;;;;5049448;28;20029;-75
2023/02/24 10:01:32;;;;;;;30.35;18.98;;;11.20;99.90;;;;;;5050459;28;20097;-75
2023/02/24 10:04:21;;;;;;;32.17;18.80;;;11.20;99.90;;;;;;5049925;28;20039;-75
2023/02/24 10:06:57;;;;;;;30.02;18.58;;;11.10;99.90;;;;;;5050401;28;20021;-75
2023/02/24 10:09:33;;;;;;;26.95;19.83;;;11.00;99.90;;;;;;5050548;28;20040;-75
2023/02/24 10:12:06;;;;;;;33.17;20.00;;;11.10;99.90;;;;;;5032496;28;20048;-76
2023/02/24 10:14:45;;;;;;;29.67;19.67;;;11.30;99.90;;;;;;5050282;28;20033;-75
2023/02/24 10:17:39;;;;;;;32.72;20.02;;;11.30;99.90;;;;;;5050322;28;20647;-75
2023/02/24 10:20:44;;;;;;;29.17;20.13;;;11.50;99.90;;;;;;5049294;28;20025;-75
2023/02/24 10:23:12;;;;;;;31.55;20.27;;;11.70;99.90;;;;;;5050039;28;20059;-75
2023/02/24 10:25:52;;;;;;;28.30;18.15;;;11.70;99.90;;;;;;5050089;28;20078;-75
2023/02/24 10:28:34;;;;;;;30.73;20.23;;;11.80;99.90;;;;;;5032109;28;20033;-76
2023/02/24 10:31:24;;;;;;;32.88;21.40;;;11.90;99.90;;;;;;5032135;28;20106;-76
2023/02/24 10:33:58;;;;;;;39.05;22.42;;;12.10;99.90;;;;;;5032000;28;20135;-76
2023/02/24 10:36:34;;;;;;;32.92;21.55;;;11.90;99.90;;;;;;5048514;28;20107;-75
2023/02/24 10:39:14;;;;;;;35.92;21.58;;;11.70;99.90;;;;;;5049873;28;20032;-75
2023/02/24 10:41:47;;;;;;;35.60;21.73;;;11.80;99.90;;;;;;5031750;28;20054;-75
2023/02/24 10:44:23;;;;;;;37.05;22.75;;;11.70;99.90;;;;;;5031943;28;20033;-75
2023/02/24 10:47:10;;;;;;;61.90;38.72;;;11.90;99.90;;;;;;5031496;28;20039;-75
2023/02/24 10:49:57;;;;;;;56.50;35.70;;;12.10;99.90;;;;;;5049556;28;20021;-76
2023/02/24 10:55:27;;;;;;;44.45;24.17;;;12.10;99.90;;;;;;5008552;28;19958;-76
2023/02/24 10:58:05;;;;;;;39.65;24.38;;;11.90;99.90;;;;;;5031785;28;20116;-75
2023/02/24 11:01:11;;;;;;;32.20;23.17;;;12.00;99.90;;;;;;5049300;28;20501;-76
2023/02/24 11:04:21;;;;;;;38.10;24.52;;;11.90;99.90;;;;;;5049209;28;20634;-76
2023/02/24 11:06:54;;;;;;;31.85;22.95;;;11.80;99.90;;;;;;5031197;28;20025;-76
2023/02/24 11:17:58;;;;;;;33.58;21.77;;;12.40;99.90;;;;;;5049227;28;20095;-76
2023/02/24 11:20:34;;;;;;;29.17;22.13;;;12.50;99.90;;;;;;5048822;28;20025;-75
2023/02/24 11:23:07;;;;;;;35.38;25.20;;;12.50;99.90;;;;;;5048755;28;20072;-75
2023/02/24 11:25:39;;;;;;;36.20;24.23;;;12.30;99.90;;;;;;5030816;28;20037;-74
2023/02/24 11:28:23;;;;;;;30.63;23.58;;;12.40;99.90;;;;;;5048844;28;20029;-75
2023/02/24 11:31:14;;;;;;;38.83;25.45;;;12.50;99.90;;;;;;5030549;28;20086;-75
2023/02/24 11:33:56;;;;;;;40.10;24.65;;;12.60;99.90;;;;;;5048750;28;20463;-76
2023/02/24 11:36:32;;;;;;;36.33;24.30;;;12.60;99.90;;;;;;5048614;28;20529;-76
2023/02/24 11:39:21;;;;;;;35.67;25.63;;;12.70;99.90;;;;;;5048598;28;20035;-75
2023/02/24 11:41:52;;;;;;;38.33;24.92;;;12.90;99.90;;;;;;5048680;28;20048;-76
2023/02/24 11:44:30;;;;;;;41.03;24.67;;;12.80;99.90;;;;;;5048108;28;20102;-75
2023/02/24 11:47:02;;;;;;;34.50;26.02;;;12.60;99.90;;;;;;5047996;28;20032;-74
2023/02/24 11:49:36;;;;;;;31.17;22.17;;;12.30;99.90;;;;;;5048454;28;20029;-75
2023/02/24 11:52:05;;;;;;;33.28;23.35;;;12.50;99.90;;;;;;5048297;28;20078;-75
2023/02/24 11:54:43;;;;;;;36.67;22.35;;;12.60;99.90;;;;;;5048420;28;20104;-76
2023/02/24 11:57:34;;;;;;;35.47;21.27;;;12.80;99.90;;;;;;5048522;28;20530;-74
2023/02/24 12:00:19;;;;;;;32.45;21.25;;;13.10;99.90;;;;;;5048228;28;20104;-76
2023/02/24 12:03:21;;;;;;;29.10;22.15;;;13.30;99.90;;;;;;5048127;28;20571;-75
2023/02/24 12:05:52;;;;;;;32.13;22.77;;;13.30;99.90;;;;;;5030732;28;20032;-75
2023/02/24 12:08:32;;;;;;;36.45;23.10;;;13.30;99.90;;;;;;5030277;28;20523;-75
2023/02/24 12:11:09;;;;;;;39.40;22.60;;;13.30;99.90;;;;;;5048342;28;20027;-75
2023/02/24 12:13:59;;;;;;;28.92;20.83;;;13.10;99.90;;;;;;5048020;28;20025;-76
2023/02/24 12:16:32;;;;;;;28.38;19.48;;;12.90;99.90;;;;;;5016478;28;20490;-75
2023/02/24 12:19:18;;;;;;;36.45;22.48;;;13.00;99.90;;;;;;5030356;28;20028;-76
2023/02/24 12:21:52;;;;;;;36.23;21.90;;;13.10;99.90;;;;;;5047264;28;20032;-74
2023/02/24 12:24:20;;;;;;;34.72;21.17;;;13.30;99.90;;;;;;5029540;28;20875;-76
2023/02/24 12:26:54;;;;;;;33.60;20.00;;;13.50;99.90;;;;;;5046913;28;20413;-74
2023/02/24 12:29:27;;;;;;;37.35;21.83;;;13.40;99.90;;;;;;5029402;28;20115;-75
2023/02/24 12:32:14;;;;;;;30.92;20.83;;;13.50;99.90;;;;;;5029353;28;20032;-75
2023/02/24 12:35:06;;;;;;;32.55;19.73;;;13.50;99.90;;;;;;5047011;28;20029;-76
2023/02/24 12:37:47;;;;;;;31.48;20.85;;;13.40;99.90;;;;;;5047027;28;20570;-75
2023/02/24 12:40:57;;;;;;;36.10;20.88;;;13.40;99.90;;;;;;5028996;28;20551;-74
2023/02/24 12:43:24;;;;;;;36.20;21.08;;;13.30;99.90;;;;;;4968913;28;20606;-74
2023/02/24 12:46:15;;;;;;;35.47;20.25;;;13.30;99.90;;;;;;5025046;28;20114;-75
2023/02/24 12:48:59;;;;;;;30.10;19.83;;;13.20;99.90;;;;;;5032920;28;20033;-75
2023/02/24 12:51:24;;;;;;;34.00;22.42;;;13.20;99.90;;;;;;5032833;28;20075;-75
2023/02/24 12:53:56;;;;;;;;;;;13.20;99.90;;;;;;5033431;28;20025;-75
2023/02/24 12:56:32;;;;;;;34.53;24.08;;;13.20;99.90;;;;;;5050935;28;19928;-75
2023/02/24 12:59:04;;;;;;;32.33;22.85;;;13.20;99.90;;;;;;5033045;28;20033;-76
2023/02/24 13:01:39;;;;;;;31.20;21.25;;;13.00;99.90;;;;;;5032737;28;20041;-74
2023/02/24 13:04:35;;;;;;;39.30;22.67;;;12.90;99.90;;;;;;5050713;28;20052;-75
2023/02/24 13:07:08;;;;;;;40.13;24.75;;;12.90;99.90;;;;;;5050832;28;20275;-75
2023/02/24 13:10:07;;;;;;;36.22;22.98;;;12.80;99.90;;;;;;5050592;28;20032;-74
2023/02/24 13:12:42;;;;;;;35.03;21.55;;;12.70;99.90;;;;;;5019807;28;20040;-75
2023/02/24 13:15:19;;;;;;;31.13;20.58;;;12.70;99.90;;;;;;5051311;28;20047;-76
2023/02/24 13:17:47;;;;;;;37.67;26.40;;;12.70;99.90;;;;;;5033833;28;20087;-75
2023/02/24 13:20:29;;;;;;;40.95;25.90;;;12.80;99.90;;;;;;5051362;28;20555;-76
2023/02/24 13:22:57;;;;;;;36.45;23.23;;;12.90;99.90;;;;;;5033355;28;20041;-75
2023/02/24 13:25:38;;;;;;;40.78;23.50;;;12.90;99.90;;;;;;5051128;28;20045;-74
2023/02/24 13:28:21;;;;;;;34.78;23.15;;;12.90;99.90;;;;;;5051084;28;20044;-75
2023/02/24 13:31:01;;;;;;;34.05;22.90;;;13.00;99.90;;;;;;5050860;28;20090;-76
2023/02/24 13:33:33;;;;;;;47.08;25.13;;;13.10;99.90;;;;;;5050970;28;20024;-76
2023/02/24 13:36:12;;;;;;;34.20;22.65;;;13.10;99.90;;;;;;5050875;28;20190;-76
2023/02/24 13:38:46;;;;;;;35.58;22.08;;;13.10;99.90;;;;;;5050763;28;20040;-75
2023/02/24 13:41:27;;;;;;;41.15;24.35;;;13.10;99.90;;;;;;5050926;28;20035;-76
2023/02/24 13:44:23;;;;;;;43.00;23.67;;;13.30;99.90;;;;;;5051010;28;20033;-76